createdAt,value
2022-12-14T00:00:27.733Z,98250.84
2022-12-14T00:02:57.256Z,98257.28
2022-12-14T00:05:29.401Z,98250.16
2022-12-14T00:07:58.246Z,98242.09
2022-12-14T00:10:27.365Z,98244.28
2022-12-14T00:12:56.325Z,98233.88
2022-12-14T00:15:25.448Z,98233.63
2022-12-14T00:17:54.474Z,98235.94
2022-12-14T00:20:23.816Z,98234.59
2022-12-14T00:22:55.316Z,98232.38
2022-12-14T00:25:25.519Z,98234.69
2022-12-14T00:27:54.563Z,98243.84
2022-12-14T00:30:23.410Z,98237.19
2022-12-14T00:32:52.258Z,98231.44
2022-12-14T00:35:21.154Z,98232.28
2022-12-14T00:37:50.099Z,98232.81
2022-12-14T00:40:20.805Z,98220.50
2022-12-14T00:42:49.776Z,98220.50
2022-12-14T00:45:18.866Z,98222.16
2022-12-14T00:47:47.746Z,98213.09
2022-12-14T00:50:16.816Z,98212.84
2022-12-14T00:52:45.645Z,98220.50
2022-12-14T00:55:16.382Z,98218.03
2022-12-14T00:57:46.677Z,98214.75
2022-12-14T01:00:17.573Z,98216.00
2022-12-14T01:02:46.609Z,98219.56
2022-12-14T01:05:15.655Z,98213.94
2022-12-14T01:07:44.641Z,98218.84
2022-12-14T01:10:17.869Z,98218.47
2022-12-14T01:12:48.189Z,98217.22
2022-12-14T01:15:17.288Z,98211.75
2022-12-14T01:17:46.235Z,98208.88
2022-12-14T01:20:15.190Z,98206.97
2022-12-14T01:22:43.998Z,98197.22
2022-12-14T01:25:13.454Z,98189.44
2022-12-14T01:27:45.702Z,98191.78
2022-12-14T01:33:28.248Z,98179.28
2022-12-14T01:36:01.960Z,98177.25
2022-12-14T01:38:40.527Z,98173.81
2022-12-14T01:41:18.566Z,98178.88
2022-12-14T01:43:49.832Z,98183.81
2022-12-14T01:46:26.813Z,98177.81
2022-12-14T01:49:03.911Z,98173.00
2022-12-14T01:51:36.154Z,98178.88
2022-12-14T01:54:11.713Z,98176.13
2022-12-14T01:56:46.142Z,98174.22
2022-12-14T01:59:20.382Z,98173.41
2022-12-14T02:01:50.326Z,98173.13
2022-12-14T02:04:22.226Z,98171.50
2022-12-14T02:06:59.406Z,98173.94
2022-12-14T02:09:37.968Z,98176.38
2022-12-14T02:12:16.134Z,98179.69
2022-12-14T02:14:46.664Z,98176.13
2022-12-14T02:17:17.260Z,98176.78
2022-12-14T02:19:49.575Z,98175.06
2022-12-14T02:23:01.403Z,98167.91
2022-12-14T02:26:14.195Z,98169.56
2022-12-14T02:29:35.419Z,98165.72
2022-12-14T02:32:24.173Z,98167.34
2022-12-14T02:35:05.368Z,98161.03
2022-12-14T02:37:49.264Z,98154.75
2022-12-14T02:40:31.302Z,98158.84
2022-12-14T02:43:15.241Z,98153.63
2022-12-14T02:45:56.703Z,98151.84
2022-12-14T02:48:35.876Z,98147.34
2022-12-14T02:51:21.961Z,98145.56
2022-12-14T02:54:02.493Z,98150.06
2022-12-14T02:56:39.524Z,98149.81
2022-12-14T02:59:10.772Z,98147.91
2022-12-14T03:01:45.391Z,98144.34
2022-12-14T03:04:17.421Z,98142.16
2022-12-14T03:07:00.125Z,98135.84
2022-12-14T03:09:32.553Z,98127.59
2022-12-14T03:12:08.396Z,98137.72
2022-12-14T03:14:46.150Z,98130.59
2022-12-14T03:17:23.268Z,98124.28
2022-12-14T03:20:00.936Z,98120.44
2022-12-14T03:22:40.749Z,98119.31
2022-12-14T03:25:16.084Z,98120.44
2022-12-14T03:27:52.225Z,98109.88
2022-12-14T03:30:44.322Z,98104.00
2022-12-14T03:33:22.453Z,98102.63
2022-12-14T03:35:59.006Z,98100.69
2022-12-14T03:38:37.218Z,98097.25
2022-12-14T03:41:24.184Z,98089.16
2022-12-14T03:44:26.192Z,98101.22
2022-12-14T03:47:05.394Z,98098.63
2022-12-14T03:49:56.708Z,98095.56
2022-12-14T03:52:34.053Z,98091.88
2022-12-14T03:55:25.335Z,98089.94
2022-12-14T03:58:15.813Z,98092.03
2022-12-14T04:00:53.615Z,98088.28
2022-12-14T04:03:37.684Z,98082.53
2022-12-14T04:06:15.357Z,98081.97
2022-12-14T04:08:51.871Z,98075.66
2022-12-14T04:11:42.091Z,98071.28
2022-12-14T04:14:33.624Z,98083.09
2022-12-14T04:17:28.987Z,98063.63
2022-12-14T04:20:08.140Z,98056.16
2022-12-14T04:22:46.159Z,98052.63
2022-12-14T04:25:39.841Z,98045.84
2022-12-14T04:28:29.743Z,98046.72
2022-12-14T04:31:03.142Z,98050.22
2022-12-14T04:33:50.528Z,98041.13
2022-12-14T04:36:26.693Z,98035.00
2022-12-14T04:39:03.730Z,98028.22
2022-12-14T04:41:39.490Z,98026.38
2022-12-14T04:44:17.344Z,98020.03
2022-12-14T04:46:48.033Z,98014.91
2022-12-14T04:49:28.327Z,98018.84
2022-12-14T04:52:06.252Z,98012.38
2022-12-14T04:54:48.431Z,98008.50
2022-12-14T04:57:32.530Z,98011.63
2022-12-14T05:00:04.318Z,98003.66
2022-12-14T05:02:58.148Z,97994.59
2022-12-14T05:05:36.357Z,97985.81
2022-12-14T05:08:13.552Z,97984.19
2022-12-14T05:10:50.321Z,97985.00
2022-12-14T05:13:27.111Z,97976.38
2022-12-14T05:15:59.917Z,97972.78
2022-12-14T05:18:29.232Z,97974.38
2022-12-14T05:20:58.173Z,97969.53
2022-12-14T05:23:27.261Z,97971.81
2022-12-14T05:26:00.236Z,97965.34
2022-12-14T05:28:32.397Z,97956.41
2022-12-14T05:31:01.839Z,97946.78
2022-12-14T05:33:33.635Z,97945.16
2022-12-14T05:36:02.624Z,97949.63
2022-12-14T05:38:31.882Z,97940.72
2022-12-14T05:41:02.749Z,97938.28
2022-12-14T05:43:31.493Z,97940.88
2022-12-14T05:46:00.802Z,97935.97
2022-12-14T05:48:30.100Z,97934.16
2022-12-14T05:51:07.654Z,97929.34
2022-12-14T05:53:36.747Z,97926.34
2022-12-14T05:56:08.735Z,97916.03
2022-12-14T05:58:39.685Z,97908.13
2022-12-14T06:01:17.043Z,97906.47
2022-12-14T06:03:47.836Z,97903.38
2022-12-14T06:06:16.696Z,97908.59
2022-12-14T06:08:47.401Z,97897.22
2022-12-14T06:11:20.398Z,97905.03
2022-12-14T06:13:50.434Z,97900.16
2022-12-14T06:16:23.086Z,97910.44
2022-12-14T06:18:54.214Z,97911.88
2022-12-14T06:21:25.795Z,97908.75
2022-12-14T06:23:56.468Z,97910.31
2022-12-14T06:26:29.028Z,97909.66
2022-12-14T06:28:59.472Z,97906.25
2022-12-14T06:31:31.229Z,97907.88
2022-12-14T06:34:28.772Z,97904.59
2022-12-14T06:36:57.661Z,97897.06
2022-12-14T06:39:26.556Z,97896.94
2022-12-14T06:41:56.704Z,97891.44
2022-12-14T06:44:25.574Z,97889.28
2022-12-14T06:46:54.406Z,97887.56
2022-12-14T06:49:23.761Z,97885.91
2022-12-14T06:51:53.035Z,97890.53
2022-12-14T06:54:22.105Z,97889.59
2022-12-14T06:56:50.872Z,97889.63
2022-12-14T06:59:21.054Z,97883.47
2022-12-14T07:01:50.447Z,97871.09
2022-12-14T07:04:21.482Z,97871.75
2022-12-14T07:06:50.532Z,97883.47
2022-12-14T07:09:19.674Z,97880.50
2022-12-14T07:11:52.131Z,97884.63
2022-12-14T07:14:22.436Z,97877.94
2022-12-14T07:16:52.619Z,97876.31
2022-12-14T07:19:22.475Z,97869.66
2022-12-14T07:21:54.264Z,97867.72
2022-12-14T07:24:23.058Z,97860.91
2022-12-14T07:26:51.828Z,97867.41
2022-12-14T07:29:21.983Z,97853.25
2022-12-14T07:31:50.706Z,97855.09
2022-12-14T07:34:19.516Z,97850.38
2022-12-14T07:36:51.972Z,97848.91
2022-12-14T07:39:22.440Z,97843.84
2022-12-14T07:41:54.672Z,97847.28
2022-12-14T07:44:25.403Z,97849.88
2022-12-14T07:46:55.279Z,97849.59
2022-12-14T07:52:21.230Z,97845.72
2022-12-14T07:54:48.999Z,97840.66
2022-12-14T07:57:17.748Z,97829.59
2022-12-14T07:59:46.470Z,97829.28
2022-12-14T08:02:16.653Z,97821.44
2022-12-14T08:04:45.740Z,97823.41
2022-12-14T08:07:14.487Z,97823.09
2022-12-14T08:09:44.629Z,97812.63
2022-12-14T08:12:13.574Z,97814.59
2022-12-14T08:14:42.506Z,97806.91
2022-12-14T08:17:11.327Z,97811.81
2022-12-14T08:19:40.134Z,97807.41
2022-12-14T08:22:08.964Z,97802.50
2022-12-14T08:24:37.701Z,97806.59
2022-12-14T08:27:07.933Z,97802.50
2022-12-14T08:29:36.759Z,97787.78
2022-12-14T08:32:06.175Z,97787.44
2022-12-14T08:34:34.927Z,97794.59
2022-12-14T08:37:03.686Z,97789.34
2022-12-14T08:39:32.628Z,97784.13
2022-12-14T08:42:01.393Z,97787.00
2022-12-14T08:44:31.490Z,97785.06
2022-12-14T08:47:00.443Z,97779.16
2022-12-14T08:49:32.478Z,97771.28
2022-12-14T08:52:01.628Z,97766.03
2022-12-14T08:54:30.700Z,97765.06
2022-12-14T08:57:00.025Z,97755.59
2022-12-14T08:59:59.301Z,97750.03
2022-12-14T09:02:19.209Z,97751.59
2022-12-14T09:04:48.032Z,97731.97
2022-12-14T09:07:16.797Z,97732.28
2022-12-14T09:09:45.623Z,97727.31
2022-12-14T09:12:14.513Z,97730.09
2022-12-14T09:14:46.725Z,97731.81
2022-12-14T09:17:19.084Z,97727.34
2022-12-14T09:19:47.822Z,97721.94
2022-12-14T09:22:16.745Z,97717.28
2022-12-14T09:24:45.813Z,97709.72
2022-12-14T09:27:14.598Z,97704.16
2022-12-14T09:29:44.927Z,97697.03
2022-12-14T09:32:14.342Z,97697.13
2022-12-14T09:34:43.144Z,97692.81
2022-12-14T09:37:12.670Z,97692.56
2022-12-14T09:39:41.768Z,97684.63
2022-12-14T09:42:38.427Z,97690.66
2022-12-14T09:45:22.773Z,97681.81
2022-12-14T09:48:02.049Z,97678.59
2022-12-14T09:50:31.578Z,97674.25
2022-12-14T09:53:06.617Z,97662.84
2022-12-14T09:55:39.396Z,97666.03
2022-12-14T09:58:22.279Z,97646.94
2022-12-14T10:01:04.500Z,97631.72
2022-12-14T10:03:52.408Z,97632.09
2022-12-14T10:06:37.333Z,97635.75
2022-12-14T10:09:20.680Z,97627.59
2022-12-14T10:12:05.234Z,97632.03
2022-12-14T10:15:02.033Z,97636.59
2022-12-14T10:18:00.308Z,97631.09
2022-12-14T10:20:43.081Z,97635.69
2022-12-14T10:23:22.800Z,97627.84
2022-12-14T10:25:57.814Z,97628.66
2022-12-14T10:28:43.212Z,97618.88
2022-12-14T10:31:17.611Z,97604.44
2022-12-14T10:33:49.167Z,97600.06
2022-12-14T10:36:24.431Z,97591.94
2022-12-14T10:39:01.863Z,97590.56
2022-12-14T10:41:42.067Z,97607.69
2022-12-14T10:44:23.644Z,97607.06
2022-12-14T10:47:02.858Z,97607.44
2022-12-14T10:49:45.992Z,97597.78
2022-12-14T10:52:20.976Z,97603.09
2022-12-14T10:54:55.201Z,97592.28
2022-12-14T10:57:27.689Z,97590.31
2022-12-14T11:00:08.539Z,97592.13
2022-12-14T11:02:43.977Z,97580.59
2022-12-14T11:05:36.060Z,97580.53
2022-12-14T11:08:07.984Z,97584.16
2022-12-14T11:10:39.868Z,97585.63
2022-12-14T11:13:21.936Z,97573.00
2022-12-14T11:15:53.809Z,97566.19
2022-12-14T11:18:32.196Z,97574.75
2022-12-14T11:21:06.163Z,97566.16
2022-12-14T11:23:41.855Z,97569.84
2022-12-14T11:26:16.585Z,97567.50
2022-12-14T11:28:51.613Z,97555.75
2022-12-14T11:31:27.174Z,97565.84
2022-12-14T11:33:58.780Z,97562.59
2022-12-14T11:36:38.096Z,97560.22
2022-12-14T11:39:22.742Z,97559.06
2022-12-14T11:42:00.916Z,97546.94
2022-12-14T11:44:38.641Z,97543.47
2022-12-14T11:47:14.267Z,97534.03
2022-12-14T11:49:47.718Z,97532.63
2022-12-14T11:52:21.276Z,97537.09
2022-12-14T11:55:13.061Z,97537.75
2022-12-14T11:57:53.868Z,97533.50
2022-12-14T12:00:29.504Z,97528.06
2022-12-14T12:03:06.379Z,97528.88
2022-12-14T12:05:44.247Z,97522.81
2022-12-14T12:08:28.325Z,97527.66
2022-12-14T12:11:02.609Z,97532.13
2022-12-14T12:13:40.829Z,97527.50
2022-12-14T12:23:24.917Z,97512.09
2022-12-14T12:25:57.566Z,97502.59
2022-12-14T12:28:32.509Z,97496.09
2022-12-14T12:31:11.502Z,97496.31
2022-12-14T12:33:48.704Z,97502.81
2022-12-14T12:36:24.297Z,97498.16
2022-12-14T12:39:09.136Z,97489.03
2022-12-14T12:41:54.378Z,97502.97
2022-12-14T12:44:49.810Z,97498.13
2022-12-14T12:47:46.063Z,97502.38
2022-12-14T12:50:20.518Z,97507.03
2022-12-14T12:53:03.043Z,97511.88
2022-12-14T12:55:43.079Z,97513.91
2022-12-14T12:58:22.260Z,97511.06
2022-12-14T13:00:55.633Z,97507.41
2022-12-14T13:03:32.411Z,97502.16
2022-12-14T13:06:15.415Z,97495.50
2022-12-14T13:08:49.950Z,97497.34
2022-12-14T13:11:28.184Z,97497.13
2022-12-14T13:14:04.461Z,97494.50
2022-12-14T13:17:36.106Z,97484.78
2022-12-14T13:20:16.817Z,97485.56
2022-12-14T13:22:47.837Z,97480.94
2022-12-14T13:25:24.499Z,97483.75
2022-12-14T13:28:30.191Z,97476.66
2022-12-14T13:31:18.233Z,97468.41
2022-12-14T13:34:16.098Z,97458.50
2022-12-14T13:37:45.575Z,97454.81
2022-12-14T13:40:55.152Z,97454.03
2022-12-14T13:43:52.180Z,97457.66
2022-12-14T13:46:26.058Z,97451.19
2022-12-14T13:49:00.107Z,97447.16
2022-12-14T13:51:36.909Z,97448.78
2022-12-14T13:54:17.617Z,97462.94
2022-12-14T13:56:47.737Z,97448.78
2022-12-14T13:59:33.073Z,97446.78
2022-12-14T14:02:06.230Z,97446.78
2022-12-14T14:04:36.807Z,97435.03
2022-12-14T14:07:51.964Z,97437.25
2022-12-14T14:10:34.683Z,97440.88
2022-12-14T14:14:04.514Z,97449.78
2022-12-14T14:16:43.995Z,97447.38
2022-12-14T14:19:24.123Z,97456.88
2022-12-14T14:22:26.257Z,97452.84
2022-12-14T14:25:01.185Z,97456.44
2022-12-14T14:27:37.749Z,97456.44
2022-12-14T14:36:26.374Z,97468.75
2022-12-14T14:38:58.510Z,97468.16
2022-12-14T14:41:42.354Z,97468.53
2022-12-14T14:44:31.748Z,97472.19
2022-12-14T14:47:07.394Z,97478.25
2022-12-14T14:49:43.036Z,97479.06
2022-12-14T14:52:59.961Z,97471.56
2022-12-14T14:56:33.643Z,97474.00
2022-12-14T14:59:51.015Z,97479.00
2022-12-14T15:02:39.213Z,97477.41
2022-12-14T15:05:41.605Z,97475.00
2022-12-14T15:08:20.099Z,97465.66
2022-12-14T15:10:51.815Z,97459.00
2022-12-14T15:13:26.803Z,97456.38
2022-12-14T15:15:56.668Z,97451.72
2022-12-14T15:18:28.668Z,97454.34
2022-12-14T15:21:03.241Z,97452.34
2022-12-14T15:23:38.625Z,97454.31
2022-12-14T15:26:17.418Z,97457.16
2022-12-14T15:29:04.744Z,97455.75
2022-12-14T15:31:40.009Z,97454.53
2022-12-14T15:34:17.214Z,97452.69
2022-12-14T15:36:47.343Z,97449.47
2022-12-14T15:39:45.894Z,97451.91
2022-12-14T15:42:18.463Z,97450.69
2022-12-14T15:44:52.087Z,97450.47
2022-12-14T15:47:30.334Z,97449.47
2022-12-14T15:50:25.558Z,97440.19
2022-12-14T15:52:59.695Z,97437.53
2022-12-14T15:55:35.594Z,97441.75
2022-12-14T15:58:16.647Z,97441.75
2022-12-14T16:00:49.000Z,97450.03
2022-12-14T16:03:29.460Z,97454.28
2022-12-14T16:06:01.394Z,97454.50
2022-12-14T16:08:32.777Z,97457.50
2022-12-14T16:11:07.221Z,97455.88
2022-12-14T16:13:41.566Z,97452.47
2022-12-14T16:16:17.416Z,97450.63
2022-12-14T16:18:50.575Z,97451.81
2022-12-14T16:21:31.684Z,97452.44
2022-12-14T16:24:13.905Z,97455.28
2022-12-14T16:26:44.263Z,97467.00
2022-12-14T16:29:23.436Z,97468.00
2022-12-14T16:31:52.404Z,97466.81
2022-12-14T16:34:23.590Z,97467.63
2022-12-14T16:39:49.745Z,97458.53
2022-12-14T16:42:25.368Z,97467.84
2022-12-14T16:44:56.397Z,97456.00
2022-12-14T16:48:04.763Z,97467.50
2022-12-14T16:50:55.889Z,97458.22
2022-12-14T16:58:28.487Z,97458.91
2022-12-14T17:01:03.778Z,97458.72
2022-12-14T17:03:35.120Z,97455.09
2022-12-14T17:06:07.729Z,97450.63
2022-12-14T17:08:36.883Z,97452.66
2022-12-14T17:11:06.688Z,97451.41
2022-12-14T17:13:37.010Z,97453.84
2022-12-14T17:16:09.329Z,97458.69
2022-12-14T17:18:41.891Z,97448.97
2022-12-14T17:21:23.706Z,97468.50
2022-12-14T17:23:53.406Z,97465.41
2022-12-14T17:26:26.816Z,97479.47
2022-12-14T17:28:58.707Z,97481.56
2022-12-14T17:31:29.243Z,97475.53
2022-12-14T17:33:58.953Z,97469.28
2022-12-14T17:36:28.104Z,97473.13
2022-12-14T17:38:57.129Z,97464.25
2022-12-14T17:41:29.002Z,97477.47
2022-12-14T17:44:03.654Z,97477.25
2022-12-14T17:46:35.969Z,97496.44
2022-12-14T17:49:07.483Z,97494.59
2022-12-14T17:51:42.238Z,97492.06
2022-12-14T17:54:18.414Z,97501.53
2022-12-14T17:56:48.528Z,97492.25
2022-12-14T17:59:18.967Z,97497.91
2022-12-14T18:01:48.845Z,97497.03
2022-12-14T18:04:18.747Z,97491.56
2022-12-14T18:06:48.165Z,97484.34
2022-12-14T18:09:19.111Z,97490.59
2022-12-14T18:12:21.010Z,97492.44
2022-12-14T18:14:38.931Z,97490.16
2022-12-14T18:21:19.684Z,97510.16
2022-12-14T18:23:49.578Z,97506.94
2022-12-14T18:26:21.126Z,97518.66
2022-12-14T18:28:51.327Z,97519.03
2022-12-14T18:31:25.899Z,97516.16
2022-12-14T18:33:55.070Z,97517.53
2022-12-14T18:36:24.922Z,97524.03
2022-12-14T18:41:30.578Z,97527.78
2022-12-14T18:44:00.792Z,97525.16
2022-12-14T18:46:29.941Z,97531.78
2022-12-14T18:49:01.525Z,97534.72
2022-12-14T18:51:38.054Z,97525.78
2022-12-14T18:54:43.700Z,97532.94
2022-12-14T18:57:42.897Z,97539.81
2022-12-14T19:00:20.442Z,97544.09
2022-12-14T19:02:50.205Z,97549.34
2022-12-14T19:05:26.039Z,97545.28
2022-12-14T19:07:57.555Z,97547.19
2022-12-14T19:10:34.180Z,97544.69
2022-12-14T19:13:04.617Z,97544.75
2022-12-14T19:15:36.865Z,97546.94
2022-12-14T19:18:06.000Z,97557.09
2022-12-14T19:20:35.162Z,97554.22
2022-12-14T19:23:34.825Z,97556.84
2022-12-14T19:26:04.932Z,97560.34
2022-12-14T19:28:35.377Z,97565.06
2022-12-14T19:31:06.989Z,97573.03
2022-12-14T19:33:36.463Z,97582.72
2022-12-14T19:36:07.011Z,97579.03
2022-12-14T19:38:37.021Z,97578.34
2022-12-14T19:41:10.014Z,97576.06
2022-12-14T19:43:40.756Z,97576.94
2022-12-14T19:46:11.741Z,97577.13
2022-12-14T19:48:42.242Z,97584.06
2022-12-14T19:51:14.692Z,97580.97
2022-12-14T19:53:46.004Z,97561.97
2022-12-14T19:56:20.738Z,97572.16
2022-12-14T19:58:51.204Z,97570.59
2022-12-14T20:01:20.086Z,97573.31
2022-12-14T20:07:56.141Z,97579.25
2022-12-14T20:10:23.653Z,97587.44
2022-12-14T20:12:51.120Z,97590.94
2022-12-14T20:15:18.734Z,97582.56
2022-12-14T20:17:46.286Z,97586.03
2022-12-14T20:20:13.737Z,97590.03
2022-12-14T20:22:41.122Z,97597.25
2022-12-14T20:31:37.782Z,97600.81
2022-12-14T20:34:06.605Z,97594.69
2022-12-14T20:36:34.077Z,97605.69
2022-12-14T20:39:02.160Z,97604.16
2022-12-14T20:41:31.190Z,97606.50
2022-12-14T20:44:01.411Z,97606.66
2022-12-14T20:46:32.207Z,97602.16
2022-12-14T21:04:27.980Z,97628.19
2022-12-14T21:06:55.439Z,97622.47
2022-12-14T21:09:22.978Z,97629.31
2022-12-14T21:12:24.463Z,97632.31
2022-12-14T21:14:56.460Z,97637.16
2022-12-14T21:17:28.284Z,97641.84
2022-12-14T21:19:59.367Z,97642.44
2022-12-14T21:22:30.483Z,97640.38
2022-12-14T21:25:04.894Z,97642.09
2022-12-14T21:27:38.511Z,97635.88
2022-12-14T21:30:10.827Z,97637.56
2022-12-14T21:32:39.916Z,97639.34
2022-12-14T21:35:11.525Z,97643.34
2022-12-14T21:37:40.624Z,97641.22
2022-12-14T21:40:31.170Z,97639.84
2022-12-14T21:42:58.951Z,97643.38
2022-12-14T21:45:27.752Z,97641.13
2022-12-14T21:47:57.742Z,97649.41
2022-12-14T21:50:27.895Z,97656.28
2022-12-14T21:52:56.643Z,97655.72
2022-12-14T21:55:25.404Z,97659.31
2022-12-14T21:58:11.491Z,97665.38
2022-12-14T22:00:40.305Z,97671.03
2022-12-14T22:03:09.143Z,97668.63
2022-12-14T22:05:40.945Z,97678.91
2022-12-14T22:08:09.719Z,97678.59
2022-12-14T22:10:38.376Z,97681.16
2022-12-14T22:13:07.027Z,97685.75
2022-12-14T22:15:36.784Z,97694.75
2022-12-14T22:18:05.818Z,97687.72
2022-12-14T22:20:34.598Z,97685.13
2022-12-14T22:27:44.197Z,97683.16
2022-12-14T22:36:29.830Z,97687.72
2022-12-14T22:52:28.361Z,97702.72
2022-12-14T23:27:10.365Z,97702.25
2022-12-14T23:29:56.740Z,97705.69
2022-12-14T23:32:42.682Z,97703.06
2022-12-14T23:35:28.924Z,97708.69
2022-12-14T23:38:22.413Z,97701.31
2022-12-14T23:41:08.961Z,97706.44
2022-12-14T23:43:55.484Z,97697.81
2022-12-14T23:46:41.450Z,97697.66
2022-12-14T23:49:28.043Z,97703.66
2022-12-14T23:52:14.250Z,97696.53
2022-12-14T23:55:01.735Z,97710.66
2022-12-14T23:57:48.046Z,97713.72
